Domov               UVHVVR             MKGP            O straneh              
ZDRAVSTVENO VARSTVO RASTLIN
  MREŽA AGROMET. POSTAJ
 ► PROGNOSTIČNA OBVESTILA
AGROMETEOROLOŠKI PODATKI -
ARSO
OBVLADOVANJE TVEGANJ ZARADI
NEUGODNIH VREMENSKIH RAZMER
  ► NARAVNE NESREČE
  ► SUŠA/MOČA
  ► NAMAKANJE
  ► ŽLED (gozdarstvo)
KARTOGRAFSKI PRIKAZI
SPLETNE POVEZAVE
PROJEKTI IN PUBLIKACIJE

AGROMETEOROLOŠKA MREŽA: VREMENSKE POSTAJE IN FENOLOŠKA OPAZOVANJA

Pregled podatkov za lokacijo Vipolže, meteorološka postaja 44544

Pregled senzorjev na lokaciji

ID Ime Zadnja
vrednost
Datum in čas
zadnje
spremembe
(Lokalni čas)
Tip
senzorja
3085 Omočenost lista (U) 1 U 19.8.2019 05:30 A730WET
3086 Padavine (mm) 0 mm 19.8.2019 05:30 Rain-O-Matic
3084 Relativna vlaga 2 m (% RH) 100 % RH 19.8.2019 05:30 50YA
3083 Temperatura 2 m (°C) 16.12 °C 19.8.2019 05:30 50YA
4030 Smer vetra (°) 64.78 ° 19.8.2019 05:30 Generic 0 - 360
4029 Hitrost vetra (km/h) 0 km/h 19.8.2019 05:30 Generic 200 km/h

Pregled podatkov zadnjih 24 ur

Zap.
št.
Datum in čas
(Centralno
evropski čas)
Vipolže
Omočenost
lista
Padavine Relativna
vlaga
2
m
Temperatura
2
m
Smer
vetra
Hitrost
vetra
1 19.8.2019 05:30
2 19.8.2019 05:00
3 19.8.2019 04:30 1 0 100 16.1 64.8 0
4 19.8.2019 04:00 1 0 100 16.2 64.8 0
5 19.8.2019 03:30 1 0 100 16.1 64.8 0
6 19.8.2019 03:00 1 0 100 16.8 64.8 0.1
7 19.8.2019 02:30 1 0 100 16.6 50.8 0
8 19.8.2019 02:00 1 0 100 16.7 50.8 0
9 19.8.2019 01:30 0 0 100 16.9 50.8 0
10 19.8.2019 01:00 1 0 100 17 50.8 0
11 19.8.2019 00:30 1 0 100 17.4 50.8 0
12 19.8.2019 00:00 0 0 100 18 50.9 0
13 18.8.2019 23:30 0 0 99.8 18 76.2 0.1
14 18.8.2019 23:00 0 0 99.2 18.2 60.6 0
15 18.8.2019 22:30 0 0 98.4 18.5 60.5 0.2
16 18.8.2019 22:00 0 0 97.5 18.9 51.9 0.4
17 18.8.2019 21:30 0 0 96.3 19.3 64.1 0.7
18 18.8.2019 21:00 0 0 94.3 19.9 63.2 0.3
19 18.8.2019 20:30 0 0 90.3 21 53.1 1.1
20 18.8.2019 20:00 0 0 88.5 21.6 69.4 2.5
21 18.8.2019 19:30 0 0 83.7 23 63.7 0.8
22 18.8.2019 19:00 0 0 72 26.5 265.4 0
23 18.8.2019 18:30 0 0 62 28.6 265.4 0.8
24 18.8.2019 18:00 0 0 59.2 29.4 282.5 1.7
25 18.8.2019 17:30 0 0 57.2 30 277.2 3.1
26 18.8.2019 17:00 0 0 54.2 31.1 282.6 2.7
27 18.8.2019 16:30 0 0 52.6 31.8 325.3 2
28 18.8.2019 16:00 0 0 53.8 31 262 4
29 18.8.2019 15:30 0 0 53.4 31.4 264.3 1.7
30 18.8.2019 15:00 0 0 55.7 30.5 233.8 4.3
31 18.8.2019 14:30 0 0 54.5 30.4 264 4.8
32 18.8.2019 14:00 0 0 53.5 31 312.4 3.5
33 18.8.2019 13:30 0 0 56.9 29.2 25.4 4.3
34 18.8.2019 13:00 0 0 55.1 29.7 289.4 2.9
35 18.8.2019 12:30 0 0 56.7 28.7 338.4 1.8
36 18.8.2019 12:00 0 0 56.3 28.8 331 1.3
37 18.8.2019 11:30 0 0 57.6 29 269.7 1.7
38 18.8.2019 11:00 0 0 57.2 29.3 299.4 1.6
39 18.8.2019 10:30 0 0 58.2 28.4 67.1 0.6
40 18.8.2019 10:00 0 0 59.5 27.9 233.4 0.3
41 18.8.2019 09:30 0 0 59.1 27.6 56.7 0.1
42 18.8.2019 09:00 0 0 61.4 26.8 235.1 0.1
43 18.8.2019 08:30 0 0 65.5 25.3 254.8 0.1
44 18.8.2019 08:00 0 0 74.6 23.5 206 0.4
45 18.8.2019 07:30 0 0 82.5 21.6 52.1 0
46 18.8.2019 07:00 0 0 95.3 18.4 52.1 0
47 18.8.2019 06:30 1 0 100 16.2 52.1 0
48 18.8.2019 06:00 1 0 100 14.9 52.1 0
© 2011 Ministrstvo za kmetijstvo, gozdarstvo in prehrano. Vse pravice pridržane.